Time;durP1;ratioP1;P1;durP2;ratioP2;P2;SDS_P1;SDS_P2;PMS_P1;PMS_P2;Temp;Humidity;BMP_temperature;BMP_pressure;BME280_temperature;BME280_humidity;BME280_pressure;Samples;Min_cycle;Max_cycle;Signal;HPM_P1;HPM_P2
2023/09/14 00:00:33;;;;;;;6.13;2.55;;;;;;;22.32;47.55;99325.75;4907998;29;20122;-92
2023/09/14 00:03:00;;;;;;;9.95;2.58;;;;;;;22.28;47.89;99328.41;4924859;29;20560;-93
2023/09/14 00:05:25;;;;;;;9.00;2.53;;;;;;;22.27;47.71;99332.31;4909450;29;20043;-91
2023/09/14 00:07:50;;;;;;;11.88;2.83;;;;;;;22.28;47.98;99341.31;4925325;29;20042;-91
2023/09/14 00:10:16;;;;;;;15.13;4.18;;;;;;;22.25;47.33;99334.59;4926055;29;20039;-91
2023/09/14 00:12:42;;;;;;;11.27;3.80;;;;;;;22.06;47.78;99324.22;4909837;29;20493;-91
2023/09/14 00:15:07;;;;;;;6.95;2.35;;;;;;;22.18;47.76;99335.16;4926009;29;20039;-90
2023/09/14 00:17:33;;;;;;;9.15;2.90;;;;;;;22.06;47.86;99334.38;4926062;29;20073;-92
2023/09/14 00:20:00;;;;;;;6.72;3.10;;;;;;;21.90;48.85;99315.91;4941880;29;20053;-92
2023/09/14 00:22:25;;;;;;;8.73;3.28;;;;;;;21.90;48.88;99335.09;4909251;29;20054;-92
2023/09/14 00:24:51;;;;;;;10.98;3.40;;;;;;;21.83;49.80;99350.50;4909365;29;20035;-93
2023/09/14 00:27:16;;;;;;;8.30;3.53;;;;;;;21.63;49.90;99333.06;4925606;29;20028;-91
2023/09/14 00:29:42;;;;;;;16.85;3.33;;;;;;;21.58;50.22;99334.91;4926219;29;20034;-91
2023/09/14 00:32:07;;;;;;;8.45;2.83;;;;;;;21.57;50.71;99344.25;4909375;29;20046;-91
2023/09/14 00:34:33;;;;;;;7.15;3.17;;;;;;;21.44;50.49;99328.97;4925864;29;20118;-90
2023/09/14 00:36:58;;;;;;;5.70;3.08;;;;;;;21.49;50.42;99336.16;4925221;29;20086;-90
2023/09/14 00:39:26;;;;;;;11.77;3.35;;;;;;;21.30;50.73;99314.78;4910028;29;20098;-91
2023/09/14 00:41:52;;;;;;;7.30;3.10;;;;;;;21.34;50.70;99329.38;4925845;29;20481;-91
2023/09/14 00:44:17;;;;;;;11.38;3.00;;;;;;;21.23;51.14;99307.13;4924847;29;20094;-91
2023/09/14 00:46:43;;;;;;;9.55;3.70;;;;;;;21.40;51.59;99336.25;4925381;29;20458;-91
2023/09/14 00:49:08;;;;;;;10.77;3.60;;;;;;;21.33;51.13;99320.38;4904862;29;20050;-91
2023/09/14 00:51:34;;;;;;;10.40;2.90;;;;;;;21.33;51.04;99320.38;4905641;29;20043;-92
2023/09/14 00:53:59;;;;;;;8.07;2.80;;;;;;;21.31;51.43;99322.66;4905696;29;20114;-91
2023/09/14 00:56:26;;;;;;;8.95;2.70;;;;;;;21.22;51.06;99313.75;4906638;29;20024;-91
2023/09/14 00:58:53;;;;;;;7.85;2.75;;;;;;;21.25;51.27;99317.72;4906381;29;20042;-91
2023/09/14 01:01:19;;;;;;;9.60;2.70;;;;;;;21.25;51.34;99318.53;4890549;29;20044;-92
2023/09/14 01:03:44;;;;;;;6.18;2.97;;;;;;;21.11;51.72;99302.44;4905392;29;20055;-93
2023/09/14 01:06:11;;;;;;;15.02;3.28;;;;;;;21.08;52.05;99300.38;4905835;29;20055;-92
2023/09/14 01:08:36;;;;;;;6.88;2.90;;;;;;;21.12;52.09;99317.72;4905756;29;20046;-92
2023/09/14 01:11:02;;;;;;;12.15;3.22;;;;;;;21.15;51.96;99322.53;4890432;29;20032;-91
2023/09/14 01:13:55;;;;;;;11.25;3.42;;;;;;;20.97;53.27;99319.19;4905318;29;20031;-92
2023/09/14 01:16:26;;;;;;;8.20;3.08;;;;;;;20.84;53.71;99319.50;4917735;29;20079;-92
2023/09/14 01:18:55;;;;;;;9.90;3.30;;;;;;;20.77;53.44;99317.28;4891010;29;20052;-91
2023/09/14 01:21:55;;;;;;;5.05;3.28;;;;;;;20.74;53.67;99309.78;4906732;29;20509;-91
2023/09/14 01:27:10;;;;;;;8.18;2.88;;;;;;;20.74;53.98;99318.00;4886857;29;20040;-92
2023/09/14 01:29:36;;;;;;;12.70;3.90;;;;;;;20.67;54.19;99312.25;4884154;29;20439;-91
2023/09/14 01:32:01;;;;;;;8.27;3.10;;;;;;;20.73;53.71;99321.84;4868767;29;20036;-92
2023/09/14 01:34:27;;;;;;;16.02;3.75;;;;;;;20.68;53.75;99311.91;4868368;29;20044;-92
2023/09/14 01:36:56;;;;;;;7.78;3.20;;;;;;;20.65;54.21;99314.53;4867666;29;20033;-92
2023/09/14 01:39:23;;;;;;;9.18;3.38;;;;;;;20.66;54.18;99316.94;4899179;29;20041;-92
2023/09/14 01:41:54;;;;;;;7.18;3.50;;;;;;;20.56;54.40;99306.38;4884053;29;20170;-91
2023/09/14 01:44:29;;;;;;;9.15;3.40;;;;;;;20.61;54.04;99314.41;4899236;29;20037;-92
2023/09/14 01:46:54;;;;;;;7.22;2.85;;;;;;;20.54;54.09;99323.16;4883019;29;20044;-92
2023/09/14 01:49:20;;;;;;;8.77;3.22;;;;;;;20.55;53.79;99319.25;4898873;29;20462;-92
2023/09/14 01:51:46;;;;;;;11.57;3.22;;;;;;;20.49;54.44;99315.13;4867947;29;20076;-91
2023/09/14 01:54:11;;;;;;;9.20;3.10;;;;;;;20.45;54.24;99311.47;4883493;29;20449;-91
2023/09/14 01:56:37;;;;;;;7.47;2.42;;;;;;;20.50;54.27;99318.66;4886605;29;20039;-91
2023/09/14 01:59:02;;;;;;;12.05;3.67;;;;;;;20.42;55.44;99314.06;4918890;29;20043;-92
2023/09/14 02:01:28;;;;;;;8.82;3.50;;;;;;;20.31;56.30;99322.69;4889223;29;20044;-91
2023/09/14 02:03:53;;;;;;;9.82;3.40;;;;;;;20.17;56.88;99314.78;4880252;29;20058;-92
2023/09/14 02:06:19;;;;;;;7.50;3.63;;;;;;;20.13;57.21;99316.56;4943213;29;20087;-91
2023/09/14 02:08:45;;;;;;;12.82;3.80;;;;;;;20.03;57.19;99305.25;4912151;29;20093;-91
2023/09/14 02:11:13;;;;;;;9.65;3.53;;;;;;;20.09;57.63;99323.06;4943858;29;20043;-92
2023/09/14 02:13:41;;;;;;;6.72;3.28;;;;;;;19.95;57.43;99307.69;4928339;29;20042;-92
2023/09/14 02:16:07;;;;;;;5.30;2.85;;;;;;;19.92;57.86;99316.56;4924386;29;20346;-92
2023/09/14 02:18:32;;;;;;;10.55;3.63;;;;;;;19.77;57.98;99311.69;4953402;29;20035;-91
2023/09/14 02:20:58;;;;;;;9.00;3.38;;;;;;;19.68;58.40;99313.66;4924625;29;20568;-91
2023/09/14 02:23:23;;;;;;;8.82;3.53;;;;;;;19.64;58.45;99320.91;4908813;29;20080;-92
2023/09/14 02:25:49;;;;;;;18.13;3.85;;;;;;;19.58;58.92;99328.47;4893102;29;20067;-92
2023/09/14 02:28:15;;;;;;;7.10;2.92;;;;;;;19.53;59.19;99326.75;4908932;29;20038;-93
2023/09/14 02:30:41;;;;;;;7.40;3.40;;;;;;;19.44;59.14;99311.50;4908139;29;20035;-92
2023/09/14 02:33:07;;;;;;;8.15;3.40;;;;;;;19.34;59.44;99307.22;4909014;29;20032;-91
2023/09/14 02:35:34;;;;;;;6.80;3.10;;;;;;;19.34;58.88;99320.88;4924278;29;20028;-92
2023/09/14 02:37:59;;;;;;;10.95;3.83;;;;;;;19.32;59.73;99325.84;4893415;29;20046;-92
2023/09/14 02:40:25;;;;;;;13.20;3.70;;;;;;;19.13;59.90;99312.59;4893547;29;20036;-91
2023/09/14 02:42:50;;;;;;;11.50;3.50;;;;;;;19.16;59.96;99318.22;4908507;29;20036;-90
2023/09/14 02:45:16;;;;;;;8.70;2.90;;;;;;;19.00;59.87;99305.44;4906734;29;20577;-92
2023/09/14 02:47:41;;;;;;;6.75;3.38;;;;;;;19.00;59.85;99310.91;4907475;29;20127;-91
2023/09/14 02:50:07;;;;;;;12.77;3.13;;;;;;;18.98;60.03;99324.88;4909351;29;20105;-92
2023/09/14 02:52:33;;;;;;;8.18;2.83;;;;;;;18.95;60.37;99323.59;4892842;29;20070;-92
2023/09/14 02:54:59;;;;;;;10.43;3.47;;;;;;;18.86;60.52;99317.34;4892133;29;20068;-91
2023/09/14 02:57:25;;;;;;;8.07;3.53;;;;;;;18.82;60.38;99321.06;4908595;29;20039;-91
2023/09/14 02:59:54;;;;;;;7.53;3.30;;;;;;;18.77;60.45;99320.06;4908335;29;20050;-91
2023/09/14 03:02:24;;;;;;;10.05;3.58;;;;;;;18.75;60.77;99321.53;4914238;29;20058;-92
2023/09/14 03:04:49;;;;;;;9.82;3.10;;;;;;;18.82;61.20;99340.16;4911494;28;20043;-91
2023/09/14 03:07:15;;;;;;;10.23;3.70;;;;;;;18.68;61.04;99329.41;4909956;29;20038;-92
2023/09/14 03:09:41;;;;;;;8.77;3.40;;;;;;;18.62;61.30;99334.22;4907541;29;20036;-92
2023/09/14 03:12:07;;;;;;;9.32;3.80;;;;;;;18.62;61.33;99334.22;4892489;29;20035;-92
2023/09/14 03:14:32;;;;;;;10.27;3.55;;;;;;;18.52;61.50;99327.16;4907456;29;20036;-92
2023/09/14 03:16:58;;;;;;;12.75;3.78;;;;;;;18.51;61.30;99327.47;4891664;29;20115;-91
2023/09/14 03:19:24;;;;;;;12.43;4.10;;;;;;;18.59;61.24;99345.75;4891985;29;20036;-92
2023/09/14 03:21:49;;;;;;;8.73;3.28;;;;;;;18.50;61.71;99350.44;4892753;29;20156;-92
2023/09/14 03:24:19;;;;;;;11.18;3.33;;;;;;;18.41;61.85;99339.53;4907795;29;20047;-94
2023/09/14 03:26:46;;;;;;;7.32;3.22;;;;;;;18.49;62.00;99359.72;4896387;29;20032;-94
2023/09/14 03:29:12;;;;;;;13.30;3.45;;;;;;;18.45;62.16;99359.59;4913067;29;20019;-94
2023/09/14 03:31:37;;;;;;;17.88;4.00;;;;;;;18.33;62.39;99343.06;4912005;29;20039;-93
2023/09/14 03:34:07;;;;;;;6.72;3.15;;;;;;;18.27;62.34;99342.41;4911062;29;20039;-93
2023/09/14 03:36:43;;;;;;;9.00;3.75;;;;;;;18.34;62.58;99356.38;4909150;29;20031;-93
2023/09/14 03:39:11;;;;;;;10.05;3.72;;;;;;;18.21;62.62;99351.88;4926970;29;20564;-91
2023/09/14 03:41:36;;;;;;;10.48;3.45;;;;;;;18.20;62.67;99346.72;4909408;29;20497;-91
2023/09/14 03:44:02;;;;;;;15.25;3.50;;;;;;;18.22;63.40;99363.56;4926500;29;20046;-93
2023/09/14 03:46:27;;;;;;;12.52;4.10;;;;;;;17.90;63.67;99341.88;4910294;29;20038;-92
2023/09/14 03:48:56;;;;;;;19.95;4.15;;;;;;;17.96;63.46;99340.63;4925597;29;20035;-93
2023/09/14 03:51:21;;;;;;;6.97;3.60;;;;;;;17.98;63.70;99352.00;4942074;28;20039;-91
2023/09/14 03:53:47;;;;;;;8.57;3.72;;;;;;;18.06;63.62;99371.41;4911683;29;20525;-92
2023/09/14 03:56:12;;;;;;;12.32;4.00;;;;;;;17.94;63.22;99344.78;4910576;29;20035;-92
2023/09/14 03:58:38;;;;;;;12.93;4.82;;;;;;;17.87;63.39;99348.00;4909826;29;20019;-92
2023/09/14 04:01:04;;;;;;;9.00;3.88;;;;;;;17.96;63.41;99351.53;4909462;29;20102;-92
2023/09/14 04:03:29;;;;;;;14.27;5.35;;;;;;;17.88;63.74;99349.56;4922453;29;20032;-91
2023/09/14 04:05:55;;;;;;;20.98;8.88;;;;;;;17.92;64.24;99363.38;4908825;29;20044;-93
2023/09/14 04:08:22;;;;;;;18.80;8.27;;;;;;;17.94;63.76;99358.41;4925722;29;20086;-93
2023/09/14 04:10:50;;;;;;;25.83;9.48;;;;;;;17.98;63.95;99364.84;4910833;29;20042;-93
2023/09/14 04:13:33;;;;;;;18.85;6.05;;;;;;;17.97;64.16;99365.94;4910574;29;20039;-93
2023/09/14 04:15:59;;;;;;;21.65;7.05;;;;;;;17.95;64.58;99370.91;4911580;29;20054;-93
2023/09/14 04:18:29;;;;;;;17.50;5.63;;;;;;;17.89;64.51;99359.38;4927049;29;20449;-92
2023/09/14 04:20:54;;;;;;;15.23;5.13;;;;;;;17.93;64.37;99368.50;4925620;29;20552;-92
2023/09/14 04:23:20;;;;;;;20.20;6.43;;;;;;;18.02;64.11;99379.41;4909602;29;20027;-91
2023/09/14 04:25:47;;;;;;;18.95;5.85;;;;;;;17.99;64.23;99374.59;4911227;29;20035;-91
2023/09/14 04:28:16;;;;;;;17.00;5.35;;;;;;;17.86;64.88;99365.44;4909883;29;20035;-91
2023/09/14 04:30:46;;;;;;;13.57;5.10;;;;;;;17.82;64.70;99350.81;4911168;29;20031;-93
2023/09/14 04:33:12;;;;;;;12.52;4.72;;;;;;;18.00;64.40;99372.69;4925672;29;20098;-95
2023/09/14 04:35:41;;;;;;;16.42;5.57;;;;;;;18.09;64.81;99381.66;4926098;29;20049;-92
2023/09/14 04:38:07;;;;;;;31.30;5.32;;;;;;;18.16;64.51;99396.44;4926677;29;20042;-92
2023/09/14 04:40:39;;;;;;;17.63;5.22;;;;;;;18.10;64.35;99380.56;4929839;29;20035;-91
2023/09/14 04:46:00;;;;;;;18.90;4.63;;;;;;;18.15;64.52;99392.09;4938031;29;19934;-91
2023/09/14 04:48:27;;;;;;;14.70;5.68;;;;;;;18.13;64.50;99380.72;4927260;29;20035;-92
2023/09/14 04:50:55;;;;;;;26.45;10.05;;;;;;;18.03;64.87;99372.03;4910962;29;20071;-94
2023/09/14 04:53:21;;;;;;;16.40;5.15;;;;;;;18.08;64.65;99385.53;4912394;29;20540;-93
2023/09/14 04:55:47;;;;;;;17.88;5.68;;;;;;;18.14;64.41;99370.63;4911819;29;20062;-91
2023/09/14 05:08:09;;;;;;;14.15;4.85;;;;;;;18.28;64.52;99348.66;4874226;29;20119;-94
2023/09/14 05:10:43;;;;;;;13.80;5.55;;;;;;;18.58;64.41;99388.59;4862672;29;20037;-94
2023/09/14 05:13:18;;;;;;;20.17;6.10;;;;;;;18.58;64.07;99374.16;4949748;28;20078;-92
2023/09/14 05:15:44;;;;;;;22.35;6.32;;;;;;;18.65;63.76;99360.03;4920758;29;20039;-94
2023/09/14 05:18:13;;;;;;;13.35;5.13;;;;;;;18.74;63.17;99356.19;4938018;29;20114;-93
2023/09/14 05:20:47;;;;;;;19.25;5.65;;;;;;;18.81;62.44;99353.00;4922185;29;20094;-93
2023/09/14 05:23:15;;;;;;;16.38;5.57;;;;;;;19.09;61.83;99379.88;4922625;29;20193;-93
2023/09/14 05:25:44;;;;;;;17.00;4.95;;;;;;;19.09;61.56;99368.97;4939119;29;20027;-93
2023/09/14 05:28:09;;;;;;;18.65;4.38;;;;;;;19.23;59.40;99376.97;4938917;29;20058;-93
2023/09/14 05:30:35;;;;;;;18.02;4.10;;;;;;;19.30;59.19;99372.63;4957741;28;20043;-94
2023/09/14 05:33:01;;;;;;;11.07;3.45;;;;;;;19.24;58.59;99349.34;4913282;29;20101;-94
2023/09/14 05:35:26;;;;;;;15.85;5.47;;;;;;;19.42;58.06;99377.38;4962843;28;20043;-94
2023/09/14 05:38:04;;;;;;;8.15;2.80;;;;;;;19.44;57.11;99363.41;4945063;29;20137;-93
2023/09/14 05:40:31;;;;;;;9.32;3.20;;;;;;;19.46;57.52;99359.19;4919036;29;20055;-94
2023/09/14 05:42:57;;;;;;;13.27;3.20;;;;;;;19.74;56.92;99380.66;4931436;29;20031;-94
2023/09/14 05:45:32;;;;;;;10.90;3.03;;;;;;;19.74;56.25;99380.66;4920083;29;20417;-93
2023/09/14 05:48:00;;;;;;;13.70;3.75;;;;;;;19.68;56.42;99351.88;4916924;29;20189;-95
2023/09/14 05:50:34;;;;;;;12.20;3.90;;;;;;;19.78;55.99;99355.06;4915335;29;20489;-95
2023/09/14 06:03:38;;;;;;;13.75;3.95;;;;;;;20.52;54.74;99385.59;4907586;29;20063;-96
2023/09/14 06:06:04;;;;;;;12.68;4.10;;;;;;;20.50;54.65;99357.78;4890654;29;20165;-94
2023/09/14 06:08:33;;;;;;;8.13;3.20;;;;;;;20.62;54.25;99375.41;4875869;29;20534;-95
2023/09/14 06:10:59;;;;;;;13.57;4.05;;;;;;;20.67;54.82;99376.00;4892670;29;20040;-93
2023/09/14 06:13:36;;;;;;;12.15;3.58;;;;;;;20.84;54.00;99382.44;4877406;29;20036;-95
2023/09/14 06:19:41;;;;;;;19.25;4.70;;;;;;;20.97;53.52;99357.50;5719861;23;20047;-96
2023/09/14 06:22:24;;;;;;;12.88;3.67;;;;;;;21.12;53.37;99358.00;4954628;29;20048;-94
2023/09/14 06:25:20;;;;;;;9.73;3.65;;;;;;;21.36;53.00;99379.94;4933801;29;20047;-91
2023/09/14 06:27:46;;;;;;;17.83;5.57;;;;;;;21.33;52.61;99358.72;4942340;29;20040;-90
2023/09/14 06:30:12;;;;;;;12.85;4.55;;;;;;;21.36;52.56;99357.25;4924725;29;20040;-91
2023/09/14 06:32:37;;;;;;;14.15;4.70;;;;;;;21.55;52.42;99362.97;4925958;29;20047;-91
2023/09/14 06:35:04;;;;;;;9.55;3.83;;;;;;;21.60;52.49;99364.69;4924178;29;20051;-91
2023/09/14 06:37:29;;;;;;;9.38;4.03;;;;;;;21.76;51.76;99375.78;4953724;29;20048;-91
2023/09/14 06:39:55;;;;;;;12.95;3.70;;;;;;;21.89;51.39;99391.06;4948342;28;20552;-90
2023/09/14 06:42:20;;;;;;;15.88;3.65;;;;;;;21.84;51.26;99360.34;4941791;29;20040;-89
2023/09/14 06:44:46;;;;;;;12.73;3.90;;;;;;;22.00;52.04;99380.44;4937543;29;20047;-89
2023/09/14 06:47:11;;;;;;;21.27;3.75;;;;;;;22.17;51.29;99395.84;4958258;29;20046;-91
2023/09/14 06:49:42;;;;;;;9.93;3.53;;;;;;;22.17;50.89;99384.88;4943970;29;20134;-91
2023/09/14 06:52:08;;;;;;;11.43;3.67;;;;;;;22.32;51.04;99395.13;4936836;29;20067;-89
2023/09/14 06:54:34;;;;;;;19.60;4.88;;;;;;;22.41;51.56;99389.50;4955617;28;20051;-90
2023/09/14 06:57:00;;;;;;;16.00;5.00;;;;;;;22.59;51.25;99410.03;4947366;29;20051;-88
2023/09/14 06:59:25;;;;;;;17.75;3.92;;;;;;;22.56;50.75;99385.25;4940666;29;20489;-88
2023/09/14 07:01:51;;;;;;;22.67;6.00;;;;;;;22.61;49.74;99385.00;4973317;28;20075;-91
2023/09/14 07:04:16;;;;;;;16.02;3.92;;;;;;;22.59;50.27;99379.84;4943020;29;20041;-89
2023/09/14 07:06:42;;;;;;;10.70;3.65;;;;;;;22.74;49.93;99374.75;4958404;28;20121;-90
2023/09/14 07:09:52;;;;;;;;;;;;;;;;;;;;;
2023/09/14 07:12:18;;;;;;;22.00;7.68;;;;;;;23.08;49.12;99400.84;4960089;29;20114;-92
2023/09/14 07:14:48;;;;;;;15.48;4.28;;;;;;;23.11;49.39;99382.84;4940844;29;20039;-95
2023/09/14 07:17:34;;;;;;;13.23;3.88;;;;;;;23.48;48.64;99410.88;4950675;29;20031;-93
2023/09/14 07:20:00;;;;;;;9.27;3.75;;;;;;;23.42;48.12;99382.06;4946027;29;20070;-91
2023/09/14 07:22:28;;;;;;;15.18;4.38;;;;;;;23.60;47.76;99388.00;4947465;29;20043;-95
2023/09/14 07:24:56;;;;;;;17.98;9.45;;;;;;;23.83;47.07;99396.44;4955317;29;20024;-95
2023/09/14 07:27:25;;;;;;;20.80;5.97;;;;;;;23.88;45.86;99381.63;4945205;29;20039;-92
2023/09/14 07:30:07;;;;;;;;;;;;;;;;;;;;;
2023/09/14 07:35:31;;;;;;;13.52;4.50;;;;;;;24.49;44.46;99393.97;4926539;29;20138;-94
2023/09/14 07:37:57;;;;;;;100.65;62.40;;;;;;;24.54;45.74;99396.47;4910331;29;20040;-94
2023/09/14 07:40:43;;;;;;;24.05;11.23;;;;;;;24.82;44.95;99415.53;4912718;29;20031;-95
2023/09/14 07:43:34;;;;;;;20.27;6.47;;;;;;;24.87;45.19;99395.16;4949493;29;20046;-94
2023/09/14 07:49:57;;;;;;;14.43;4.28;;;;;;;25.04;45.16;99374.59;4914236;29;20025;-90
2023/09/14 07:52:34;;;;;;;12.40;3.55;;;;;;;25.16;45.40;99385.44;4865728;28;20035;-93
2023/09/14 07:55:02;;;;;;;15.50;4.22;;;;;;;25.11;45.10;99375.53;4972497;28;20042;-92
2023/09/14 07:58:09;;;;;;;35.63;18.75;;;;;;;25.40;44.35;99400.84;4960031;28;20059;-94
2023/09/14 08:00:35;;;;;;;13.20;4.90;;;;;;;25.42;44.28;99384.72;4952256;28;20113;-93
2023/09/14 08:03:02;;;;;;;12.32;4.45;;;;;;;25.61;43.41;99381.13;4929360;28;20062;-93
2023/09/14 08:05:28;;;;;;;13.50;3.83;;;;;;;25.61;40.98;99370.09;4951042;28;20524;-94
2023/09/14 08:07:56;;;;;;;8.82;2.90;;;;;;;25.90;40.47;99392.59;4949019;28;20086;-94
2023/09/14 08:10:23;;;;;;;13.07;4.22;;;;;;;26.11;40.68;99395.69;4939694;28;20127;-93
2023/09/14 08:12:50;;;;;;;8.20;3.38;;;;;;;26.10;41.62;99372.00;4937580;28;20529;-94
2023/09/14 08:15:16;;;;;;;13.02;3.65;;;;;;;26.22;40.65;99376.53;4930436;28;20154;-94
2023/09/14 08:17:45;;;;;;;12.55;3.80;;;;;;;26.35;39.10;99386.16;4932982;28;20027;-93
2023/09/14 08:20:11;;;;;;;12.27;3.35;;;;;;;26.55;39.29;99388.78;4942460;28;20042;-93
2023/09/14 08:22:36;;;;;;;14.32;4.57;;;;;;;26.69;38.88;99377.16;4933901;28;20065;-94
2023/09/14 08:25:07;;;;;;;14.32;3.95;;;;;;;26.75;38.64;99361.78;4935995;28;20039;-93
2023/09/14 08:27:35;;;;;;;7.57;3.53;;;;;;;27.09;38.22;99375.59;4948068;28;20106;-93
2023/09/14 08:30:02;;;;;;;13.48;4.13;;;;;;;27.15;36.75;99368.53;4950680;29;20470;-94
2023/09/14 08:32:38;;;;;;;11.52;3.90;;;;;;;27.28;36.73;99369.88;4951945;29;20046;-93
2023/09/14 08:35:24;;;;;;;9.32;3.40;;;;;;;27.53;34.92;99380.34;4965804;29;20381;-95
2023/09/14 08:37:55;;;;;;;13.90;3.40;;;;;;;27.55;34.04;99353.88;4982878;28;20031;-91
2023/09/14 08:40:41;;;;;;;11.25;3.25;;;;;;;27.57;34.47;99334.94;4936958;29;20026;-94
2023/09/14 08:47:11;;;;;;;17.40;6.03;;;;;;;28.04;33.78;99349.09;4971578;28;20041;-94
2023/09/14 08:49:40;;;;;;;15.23;4.20;;;;;;;27.99;32.54;99319.84;4935890;28;20035;-93
2023/09/14 08:53:05;;;;;;;;;;;;;;;;;;;;;
2023/09/14 08:56:08;;;;;;;11.07;3.88;;;;;;;28.36;31.13;99338.16;4927185;29;20066;-94
2023/09/14 08:58:38;;;;;;;12.38;3.60;;;;;;;28.35;31.00;99319.19;4916958;29;20024;-96
2023/09/14 09:01:10;;;;;;;9.27;4.03;;;;;;;28.33;30.70;99307.72;4916702;29;20103;-95
2023/09/14 09:04:24;;;;;;;10.35;3.28;;;;;;;28.50;29.95;99308.97;4922703;29;20036;-96
2023/09/14 09:07:13;;;;;;;11.95;3.20;;;;;;;28.67;30.91;99327.63;4951909;29;20040;-96
2023/09/14 09:10:07;;;;;;;10.02;3.47;;;;;;;28.70;30.44;99306.63;4924129;29;20046;-96
2023/09/14 09:12:36;;;;;;;11.80;3.60;;;;;;;28.79;31.09;99310.63;4898222;29;20037;-95
2023/09/14 09:15:04;;;;;;;9.23;2.92;;;;;;;28.75;30.08;99287.66;4927419;29;20044;-94
2023/09/14 09:17:41;;;;;;;8.95;3.00;;;;;;;29.04;29.60;99320.97;4901227;29;20138;-93
2023/09/14 09:23:27;;;;;;;10.75;2.40;;;;;;;29.16;29.12;99309.50;4926354;29;20048;-95
2023/09/14 09:25:53;;;;;;;11.75;2.67;;;;;;;29.11;29.36;99300.78;4913456;29;20020;-94
2023/09/14 09:28:19;;;;;;;8.27;2.97;;;;;;;29.17;29.04;99299.97;4930804;29;20421;-94
2023/09/14 09:30:44;;;;;;;12.45;3.53;;;;;;;29.18;29.50;99298.81;4947842;29;20046;-94
2023/09/14 09:33:13;;;;;;;18.13;4.60;;;;;;;29.28;29.71;99305.56;4913902;29;20039;-95
2023/09/14 09:35:41;;;;;;;11.18;3.25;;;;;;;29.35;29.20;99291.66;4927636;29;20044;-94
2023/09/14 09:38:12;;;;;;;12.23;3.10;;;;;;;29.37;28.83;99294.84;4913563;29;20054;-93
2023/09/14 09:40:47;;;;;;;9.77;3.00;;;;;;;29.52;28.46;99284.50;4914825;29;20064;-96
2023/09/14 09:43:16;;;;;;;11.65;3.10;;;;;;;29.58;28.70;99287.69;4917414;29;20067;-94
2023/09/14 09:45:42;;;;;;;5.88;2.78;;;;;;;29.57;28.42;99273.00;4915448;29;20031;-93
2023/09/14 09:48:10;;;;;;;7.03;2.75;;;;;;;29.62;28.33;99261.50;4927614;29;20118;-94
2023/09/14 09:50:41;;;;;;;12.90;3.42;;;;;;;29.87;28.06;99280.09;4913655;29;20036;-95
2023/09/14 10:03:04;;;;;;;;;;;;;;;;;;;;;
2023/09/14 10:05:38;;;;;;;11.90;4.20;;;;;;;30.37;27.31;99274.34;4959086;29;20118;-95
2023/09/14 10:08:04;;;;;;;9.70;3.13;;;;;;;30.56;26.68;99294.50;4934761;29;20550;-94
2023/09/14 10:10:56;;;;;;;10.75;2.95;;;;;;;30.45;26.06;99277.88;4930250;28;20039;-95
2023/09/14 10:13:23;;;;;;;8.77;2.55;;;;;;;30.51;27.08;99270.72;4933584;29;20055;-95
2023/09/14 10:16:09;;;;;;;6.95;3.08;;;;;;;30.66;26.81;99292.84;4948508;29;20046;-93
2023/09/14 10:18:41;;;;;;;7.82;2.70;;;;;;;30.59;26.10;99268.69;4933366;29;20059;-95
2023/09/14 10:21:07;;;;;;;9.02;2.53;;;;;;;30.60;26.28;99259.13;4928739;29;20147;-94
2023/09/14 10:24:12;;;;;;;;;;;;;;;;;;;;;
2023/09/14 10:26:41;;;;;;;9.50;3.30;;;;;;;30.80;25.10;99254.63;4970571;28;20114;-94
2023/09/14 10:29:20;;;;;;;9.80;3.33;;;;;;;30.88;25.51;99252.63;4927301;29;20048;-93
2023/09/14 10:35:55;;;;;;;7.68;2.78;;;;;;;31.17;25.00;99275.41;4966218;29;20078;-94
2023/09/14 10:39:09;;;;;;;;;;;;;;;;;;;;;
2023/09/14 10:41:45;;;;;;;9.68;3.13;;;;;;;31.00;26.13;99243.78;4964107;29;20078;-94
2023/09/14 10:44:33;;;;;;;7.00;2.80;;;;;;;31.27;25.86;99268.16;4949999;29;20047;-95
2023/09/14 10:47:12;;;;;;;6.80;2.92;;;;;;;31.19;26.26;99252.72;4931887;29;20031;-93
2023/09/14 10:50:06;;;;;;;9.30;3.45;;;;;;;31.37;25.66;99260.91;4937692;29;20040;-96
2023/09/14 10:52:34;;;;;;;9.35;3.83;;;;;;;31.39;25.04;99261.28;4933096;29;20035;-96
2023/09/14 10:55:00;;;;;;;10.35;2.78;;;;;;;31.35;24.49;99254.97;4942609;29;20054;-96
2023/09/14 10:57:28;;;;;;;7.43;2.38;;;;;;;31.29;24.17;99257.41;4929045;29;20027;-94
2023/09/14 10:59:57;;;;;;;13.13;3.22;;;;;;;31.18;24.11;99245.59;4934103;29;20053;-93
2023/09/14 11:02:45;;;;;;;11.80;2.53;;;;;;;31.22;24.51;99260.28;4964750;28;20035;-94
2023/09/14 11:05:10;;;;;;;9.45;2.80;;;;;;;31.29;24.05;99262.97;4964106;28;20398;-94
2023/09/14 11:07:45;;;;;;;13.60;2.97;;;;;;;31.16;24.12;99234.09;4950147;28;20042;-94
2023/09/14 11:10:38;;;;;;;7.40;2.30;;;;;;;31.35;24.24;99257.75;4928100;29;20040;-92
2023/09/14 11:13:26;;;;;;;11.25;3.10;;;;;;;31.28;24.38;99241.16;4946401;29;20043;-94
2023/09/14 11:16:18;;;;;;;18.52;8.18;;;;;;;31.23;25.05;99234.00;4934005;29;20036;-95
2023/09/14 11:18:43;;;;;;;7.43;3.63;;;;;;;31.40;24.90;99258.09;4939644;29;20102;-94
2023/09/14 11:28:23;;;;;;;7.35;2.72;;;;;;;31.46;24.51;99210.38;4962469;28;20118;-94
2023/09/14 11:30:52;;;;;;;7.70;2.40;;;;;;;31.49;24.78;99201.22;4928746;29;20047;-95
2023/09/14 11:33:17;;;;;;;10.32;3.20;;;;;;;31.66;24.63;99216.13;4932386;29;20485;-95
2023/09/14 11:35:53;;;;;;;8.70;2.70;;;;;;;31.73;24.50;99229.94;4928366;29;20036;-96
2023/09/14 11:38:31;;;;;;;9.00;2.70;;;;;;;31.66;24.64;99207.75;4930499;29;20101;-96
2023/09/14 11:41:04;;;;;;;11.05;3.40;;;;;;;31.79;24.85;99214.34;4942465;29;20044;-95
2023/09/14 11:43:38;;;;;;;7.03;2.63;;;;;;;31.78;23.96;99218.34;4934546;29;20046;-90
2023/09/14 11:46:41;;;;;;;;;;;;;;;;;;;;;
2023/09/14 11:49:59;;;;;;;9.60;3.22;;;;;;;31.85;23.16;99209.91;4968606;29;20070;-91
2023/09/14 11:56:33;;;;;;;10.05;3.60;;;;;;;32.00;22.75;99203.00;4877068;29;20034;-92
2023/09/14 12:00:07;;;;;;;;;;;;;;;;;;;;;
2023/09/14 12:02:35;;;;;;;10.00;2.45;;;;;;;32.28;22.07;99197.44;4893955;29;20112;-93
2023/09/14 12:05:30;;;;;;;10.73;2.90;;;;;;;32.42;21.80;99197.22;4873174;29;20040;-93
2023/09/14 12:07:55;;;;;;;5.18;2.55;;;;;;;32.41;21.88;99184.47;4949144;29;20036;-93
2023/09/14 12:10:25;;;;;;;8.05;2.90;;;;;;;32.68;22.47;99211.59;4929458;29;20114;-94
2023/09/14 12:12:52;;;;;;;8.15;2.88;;;;;;;32.71;22.10;99211.53;4963846;28;20118;-95
2023/09/14 12:15:20;;;;;;;8.55;2.50;;;;;;;32.62;22.42;99202.91;4934380;29;20098;-95
2023/09/14 12:17:52;;;;;;;12.65;3.35;;;;;;;32.53;22.19;99180.31;4933117;29;20027;-94
2023/09/14 12:20:26;;;;;;;9.57;2.70;;;;;;;32.73;21.91;99202.75;4929568;29;20057;-96
2023/09/14 12:22:53;;;;;;;9.40;3.10;;;;;;;32.47;22.14;99182.03;4946904;29;20481;-93
2023/09/14 12:25:24;;;;;;;7.68;3.30;;;;;;;32.51;22.69;99197.47;4948198;29;20094;-93
2023/09/14 12:33:09;;;;;;;6.60;2.53;;;;;;;32.61;22.60;99179.81;4961081;28;20099;-92
2023/09/14 12:35:35;;;;;;;8.07;2.60;;;;;;;32.55;22.79;99184.28;4946725;29;20408;-96
2023/09/14 12:38:08;;;;;;;10.18;3.03;;;;;;;32.51;23.14;99179.97;4929738;29;20040;-94
2023/09/14 12:40:43;;;;;;;7.43;2.67;;;;;;;32.37;23.05;99181.78;4938904;29;20042;-95
2023/09/14 12:43:13;;;;;;;13.25;2.90;;;;;;;32.37;23.04;99175.38;4917367;29;20122;-95
2023/09/14 12:45:39;;;;;;;5.35;2.85;;;;;;;32.57;23.31;99198.59;4947200;29;20023;-94
2023/09/14 12:48:07;;;;;;;9.95;2.67;;;;;;;32.41;23.11;99171.34;4962796;28;20055;-95
2023/09/14 12:50:58;;;;;;;10.73;2.90;;;;;;;32.60;23.22;99191.38;4945060;29;20107;-94
2023/09/14 12:53:40;;;;;;;11.63;3.30;;;;;;;32.61;23.06;99195.75;4975631;28;20369;-94
2023/09/14 12:59:59;;;;;;;9.98;2.60;;;;;;;32.26;22.95;99175.56;4885850;29;20070;-92
2023/09/14 13:02:39;;;;;;;8.75;2.65;;;;;;;32.16;23.03;99174.50;4924714;29;20486;-96
2023/09/14 13:05:20;;;;;;;7.75;2.65;;;;;;;31.93;22.68;99150.13;4918678;29;20064;-95
2023/09/14 13:11:36;;;;;;;8.38;2.65;;;;;;;31.99;22.73;99178.34;4882477;29;20070;-95
2023/09/14 13:14:21;;;;;;;8.90;3.03;;;;;;;31.90;23.48;99153.75;4920649;29;20040;-96
2023/09/14 13:16:58;;;;;;;8.23;3.22;;;;;;;31.89;23.39;99143.03;4943220;29;20015;-95
2023/09/14 13:26:25;;;;;;;6.65;2.78;;;;;;;32.06;23.31;99163.50;4940923;29;20072;-95